sensor_id;sensor_type;location;lat;lon;timestamp;pressure;altitude;pressure_sealevel;temperature
65290;BMP180;51893;59.754;10.110;2022-08-11T00:01:59;102222.20;;;17.40
65290;BMP180;51893;59.754;10.110;2022-08-11T00:04:35;102218.40;;;17.50
65290;BMP180;51893;59.754;10.110;2022-08-11T00:07:05;102218.20;;;17.40
65290;BMP180;51893;59.754;10.110;2022-08-11T00:09:37;102225.20;;;17.30
65290;BMP180;51893;59.754;10.110;2022-08-11T00:12:15;102226.80;;;17.22
65290;BMP180;51893;59.754;10.110;2022-08-11T00:14:45;102229.00;;;17.18
65290;BMP180;51893;59.754;10.110;2022-08-11T00:17:16;102237.40;;;17.10
65290;BMP180;51893;59.754;10.110;2022-08-11T00:19:47;102236.40;;;17.08
65290;BMP180;51893;59.754;10.110;2022-08-11T00:22:40;102233.60;;;17.00
65290;BMP180;51893;59.754;10.110;2022-08-11T00:25:12;102240.60;;;17.00
65290;BMP180;51893;59.754;10.110;2022-08-11T00:27:40;102237.80;;;16.90
65290;BMP180;51893;59.754;10.110;2022-08-11T00:30:11;102235.40;;;16.90
65290;BMP180;51893;59.754;10.110;2022-08-11T00:32:44;102236.40;;;16.80
65290;BMP180;51893;59.754;10.110;2022-08-11T00:35:15;102238.00;;;16.70
65290;BMP180;51893;59.754;10.110;2022-08-11T00:38:06;102239.40;;;16.70
65290;BMP180;51893;59.754;10.110;2022-08-11T00:43:58;102238.80;;;16.70
65290;BMP180;51893;59.754;10.110;2022-08-11T00:50:02;102243.20;;;16.60
65290;BMP180;51893;59.754;10.110;2022-08-11T01:24:40;102250.00;;;16.28
65290;BMP180;51893;59.754;10.110;2022-08-11T01:27:39;102250.20;;;16.20
65290;BMP180;51893;59.754;10.110;2022-08-11T01:30:58;102256.00;;;16.08
65290;BMP180;51893;59.754;10.110;2022-08-11T01:43:17;102252.00;;;15.70
65290;BMP180;51893;59.754;10.110;2022-08-11T01:46:20;102256.20;;;15.60
65290;BMP180;51893;59.754;10.110;2022-08-11T01:49:16;102250.20;;;15.60
65290;BMP180;51893;59.754;10.110;2022-08-11T01:52:33;102254.40;;;15.50
65290;BMP180;51893;59.754;10.110;2022-08-11T01:55:30;102248.60;;;15.40
65290;BMP180;51893;59.754;10.110;2022-08-11T01:58:35;102259.20;;;15.40
65290;BMP180;51893;59.754;10.110;2022-08-11T02:02:13;102259.20;;;15.30
65290;BMP180;51893;59.754;10.110;2022-08-11T02:05:25;102260.40;;;15.30
65290;BMP180;51893;59.754;10.110;2022-08-11T02:08:09;102256.40;;;15.30
65290;BMP180;51893;59.754;10.110;2022-08-11T02:10:55;102247.80;;;15.30
65290;BMP180;51893;59.754;10.110;2022-08-11T02:13:57;102255.00;;;15.30
65290;BMP180;51893;59.754;10.110;2022-08-11T02:20:09;102256.40;;;15.30
65290;BMP180;51893;59.754;10.110;2022-08-11T02:23:05;102257.40;;;15.20
65290;BMP180;51893;59.754;10.110;2022-08-11T02:27:06;102258.80;;;15.10
65290;BMP180;51893;59.754;10.110;2022-08-11T02:29:59;102252.40;;;15.00
65290;BMP180;51893;59.754;10.110;2022-08-11T02:32:46;102254.20;;;15.00
65290;BMP180;51893;59.754;10.110;2022-08-11T02:36:07;102256.20;;;14.90
65290;BMP180;51893;59.754;10.110;2022-08-11T02:38:50;102243.80;;;14.88
65290;BMP180;51893;59.754;10.110;2022-08-11T02:41:43;102249.40;;;14.88
65290;BMP180;51893;59.754;10.110;2022-08-11T02:54:37;102254.60;;;14.80
65290;BMP180;51893;59.754;10.110;2022-08-11T03:10:59;102244.20;;;14.40
65290;BMP180;51893;59.754;10.110;2022-08-11T03:14:28;102243.20;;;14.40
65290;BMP180;51893;59.754;10.110;2022-08-11T03:17:33;102243.00;;;14.40
65290;BMP180;51893;59.754;10.110;2022-08-11T03:20:35;102246.00;;;14.40
65290;BMP180;51893;59.754;10.110;2022-08-11T03:26:21;102255.60;;;14.40
65290;BMP180;51893;59.754;10.110;2022-08-11T03:29:06;102252.80;;;14.30
65290;BMP180;51893;59.754;10.110;2022-08-11T03:31:43;102249.00;;;14.30
65290;BMP180;51893;59.754;10.110;2022-08-11T03:34:25;102246.20;;;14.26
65290;BMP180;51893;59.754;10.110;2022-08-11T03:40:37;102245.40;;;14.30
65290;BMP180;51893;59.754;10.110;2022-08-11T03:44:03;102253.00;;;14.30
65290;BMP180;51893;59.754;10.110;2022-08-11T03:46:43;102248.40;;;14.20
65290;BMP180;51893;59.754;10.110;2022-08-11T03:55:26;102251.80;;;14.18
65290;BMP180;51893;59.754;10.110;2022-08-11T04:11:16;102265.40;;;14.10
65290;BMP180;51893;59.754;10.110;2022-08-11T04:14:22;102261.40;;;14.10
65290;BMP180;51893;59.754;10.110;2022-08-11T04:23:24;102264.00;;;14.20
65290;BMP180;51893;59.754;10.110;2022-08-11T04:33:34;102257.20;;;14.30
65290;BMP180;51893;59.754;10.110;2022-08-11T04:39:52;102257.40;;;14.40
65290;BMP180;51893;59.754;10.110;2022-08-11T04:55:45;102267.60;;;14.70
65290;BMP180;51893;59.754;10.110;2022-08-11T05:17:08;102245.60;;;15.50
65290;BMP180;51893;59.754;10.110;2022-08-11T05:19:56;102255.20;;;15.64
65290;BMP180;51893;59.754;10.110;2022-08-11T05:22:49;102256.60;;;15.86
65290;BMP180;51893;59.754;10.110;2022-08-11T05:25:45;102252.80;;;16.00
65290;BMP180;51893;59.754;10.110;2022-08-11T05:29:00;102264.80;;;16.20
65290;BMP180;51893;59.754;10.110;2022-08-11T05:31:55;102264.00;;;16.40
65290;BMP180;51893;59.754;10.110;2022-08-11T05:34:52;102265.40;;;16.52
65290;BMP180;51893;59.754;10.110;2022-08-11T05:40:12;102264.80;;;16.80
65290;BMP180;51893;59.754;10.110;2022-08-11T05:43:07;102264.60;;;16.90
65290;BMP180;51893;59.754;10.110;2022-08-11T05:46:06;102269.80;;;17.00
65290;BMP180;51893;59.754;10.110;2022-08-11T05:48:53;102275.00;;;17.10
65290;BMP180;51893;59.754;10.110;2022-08-11T05:51:43;102270.80;;;17.20
65290;BMP180;51893;59.754;10.110;2022-08-11T05:54:40;102269.40;;;17.30
65290;BMP180;51893;59.754;10.110;2022-08-11T05:57:36;102275.20;;;17.42
65290;BMP180;51893;59.754;10.110;2022-08-11T06:00:19;102277.00;;;17.50
65290;BMP180;51893;59.754;10.110;2022-08-11T06:02:52;102277.40;;;17.60
65290;BMP180;51893;59.754;10.110;2022-08-11T06:05:22;102280.60;;;17.72
65290;BMP180;51893;59.754;10.110;2022-08-11T06:07:54;102290.80;;;17.82
65290;BMP180;51893;59.754;10.110;2022-08-11T06:10:35;102288.00;;;17.90
65290;BMP180;51893;59.754;10.110;2022-08-11T06:13:06;102295.60;;;18.00
65290;BMP180;51893;59.754;10.110;2022-08-11T06:15:48;102296.20;;;18.10
65290;BMP180;51893;59.754;10.110;2022-08-11T06:18:18;102291.20;;;18.12
65290;BMP180;51893;59.754;10.110;2022-08-11T06:23:19;102300.60;;;18.30
65290;BMP180;51893;59.754;10.110;2022-08-11T06:25:51;102300.20;;;18.30
65290;BMP180;51893;59.754;10.110;2022-08-11T06:28:32;102303.80;;;18.40
65290;BMP180;51893;59.754;10.110;2022-08-11T06:31:18;102306.60;;;18.40
65290;BMP180;51893;59.754;10.110;2022-08-11T06:34:18;102306.00;;;18.50
65290;BMP180;51893;59.754;10.110;2022-08-11T06:43:16;102309.60;;;18.80
65290;BMP180;51893;59.754;10.110;2022-08-11T06:46:02;102311.80;;;18.86
65290;BMP180;51893;59.754;10.110;2022-08-11T06:48:33;102310.60;;;18.90
65290;BMP180;51893;59.754;10.110;2022-08-11T06:51:07;102310.60;;;19.00
65290;BMP180;51893;59.754;10.110;2022-08-11T06:53:46;102316.60;;;19.10
65290;BMP180;51893;59.754;10.110;2022-08-11T06:56:37;102315.60;;;19.20
65290;BMP180;51893;59.754;10.110;2022-08-11T06:59:46;102316.40;;;19.40
65290;BMP180;51893;59.754;10.110;2022-08-11T07:02:44;102321.80;;;19.50
65290;BMP180;51893;59.754;10.110;2022-08-11T07:05:23;102315.60;;;19.60
65290;BMP180;51893;59.754;10.110;2022-08-11T07:11:54;102316.60;;;19.74
65290;BMP180;51893;59.754;10.110;2022-08-11T07:14:50;102315.80;;;19.80
65290;BMP180;51893;59.754;10.110;2022-08-11T07:17:44;102317.40;;;19.80
65290;BMP180;51893;59.754;10.110;2022-08-11T07:20:17;102317.00;;;19.80
65290;BMP180;51893;59.754;10.110;2022-08-11T07:23:08;102324.20;;;19.80
65290;BMP180;51893;59.754;10.110;2022-08-11T07:25:59;102322.40;;;19.90
65290;BMP180;51893;59.754;10.110;2022-08-11T07:28:49;102322.40;;;19.94
65290;BMP180;51893;59.754;10.110;2022-08-11T07:34:24;102323.00;;;20.10
65290;BMP180;51893;59.754;10.110;2022-08-11T07:36:59;102323.80;;;20.20
65290;BMP180;51893;59.754;10.110;2022-08-11T07:39:33;102329.00;;;20.30
65290;BMP180;51893;59.754;10.110;2022-08-11T07:42:09;102333.40;;;20.40
65290;BMP180;51893;59.754;10.110;2022-08-11T07:44:41;102335.60;;;20.50
65290;BMP180;51893;59.754;10.110;2022-08-11T07:47:28;102332.40;;;20.50
65290;BMP180;51893;59.754;10.110;2022-08-11T07:50:15;102334.40;;;20.60
65290;BMP180;51893;59.754;10.110;2022-08-11T07:53:03;102332.60;;;20.70
65290;BMP180;51893;59.754;10.110;2022-08-11T07:55:32;102331.60;;;20.70
65290;BMP180;51893;59.754;10.110;2022-08-11T07:58:21;102331.60;;;20.80
65290;BMP180;51893;59.754;10.110;2022-08-11T08:01:24;102331.40;;;20.90
65290;BMP180;51893;59.754;10.110;2022-08-11T08:04:16;102333.20;;;21.00
65290;BMP180;51893;59.754;10.110;2022-08-11T08:07:05;102332.20;;;21.12
65290;BMP180;51893;59.754;10.110;2022-08-11T08:09:53;102332.40;;;21.30
65290;BMP180;51893;59.754;10.110;2022-08-11T08:12:43;102333.00;;;21.40
65290;BMP180;51893;59.754;10.110;2022-08-11T08:15:30;102335.20;;;21.60
65290;BMP180;51893;59.754;10.110;2022-08-11T08:18:17;102341.80;;;21.66
65290;BMP180;51893;59.754;10.110;2022-08-11T08:20:56;102347.60;;;21.80
65290;BMP180;51893;59.754;10.110;2022-08-11T08:23:45;102347.60;;;21.90
65290;BMP180;51893;59.754;10.110;2022-08-11T08:26:20;102345.40;;;22.00
65290;BMP180;51893;59.754;10.110;2022-08-11T08:29:07;102346.80;;;22.10
65290;BMP180;51893;59.754;10.110;2022-08-11T08:31:55;102340.40;;;22.20
65290;BMP180;51893;59.754;10.110;2022-08-11T08:34:26;102349.80;;;22.40
65290;BMP180;51893;59.754;10.110;2022-08-11T08:36:59;102347.80;;;22.50
65290;BMP180;51893;59.754;10.110;2022-08-11T08:39:28;102354.60;;;22.66
65290;BMP180;51893;59.754;10.110;2022-08-11T08:42:12;102349.20;;;22.80
65290;BMP180;51893;59.754;10.110;2022-08-11T08:44:46;102346.20;;;22.96
65290;BMP180;51893;59.754;10.110;2022-08-11T08:47:18;102339.80;;;23.10
65290;BMP180;51893;59.754;10.110;2022-08-11T08:50:13;102353.40;;;23.20
65290;BMP180;51893;59.754;10.110;2022-08-11T08:52:55;102351.60;;;23.30
65290;BMP180;51893;59.754;10.110;2022-08-11T08:55:27;102354.60;;;23.40
65290;BMP180;51893;59.754;10.110;2022-08-11T08:57:58;102354.20;;;23.50
65290;BMP180;51893;59.754;10.110;2022-08-11T09:00:39;102347.60;;;23.60
65290;BMP180;51893;59.754;10.110;2022-08-11T09:03:09;102349.40;;;23.70
65290;BMP180;51893;59.754;10.110;2022-08-11T09:05:57;102359.00;;;23.80
65290;BMP180;51893;59.754;10.110;2022-08-11T09:08:26;102352.00;;;23.90
65290;BMP180;51893;59.754;10.110;2022-08-11T09:10:59;102359.80;;;24.00
65290;BMP180;51893;59.754;10.110;2022-08-11T09:13:47;102350.60;;;24.06
65290;BMP180;51893;59.754;10.110;2022-08-11T09:16:35;102353.80;;;24.10
65290;BMP180;51893;59.754;10.110;2022-08-11T09:19:03;102351.00;;;24.20
65290;BMP180;51893;59.754;10.110;2022-08-11T09:21:32;102347.80;;;24.20
65290;BMP180;51893;59.754;10.110;2022-08-11T09:24:17;102347.40;;;24.30
65290;BMP180;51893;59.754;10.110;2022-08-11T09:27:06;102347.60;;;24.40
65290;BMP180;51893;59.754;10.110;2022-08-11T09:29:37;102351.20;;;24.50
65290;BMP180;51893;59.754;10.110;2022-08-11T09:32:06;102349.80;;;24.60
65290;BMP180;51893;59.754;10.110;2022-08-11T09:34:38;102351.00;;;24.60
65290;BMP180;51893;59.754;10.110;2022-08-11T09:37:08;102348.80;;;24.70
65290;BMP180;51893;59.754;10.110;2022-08-11T09:40:16;102347.00;;;24.80
65290;BMP180;51893;59.754;10.110;2022-08-11T09:43:06;102342.60;;;24.90
65290;BMP180;51893;59.754;10.110;2022-08-11T09:45:57;102342.40;;;25.00
65290;BMP180;51893;59.754;10.110;2022-08-11T09:48:29;102337.80;;;25.02
65290;BMP180;51893;59.754;10.110;2022-08-11T09:51:00;102331.60;;;25.10
65290;BMP180;51893;59.754;10.110;2022-08-11T09:53:38;102331.80;;;25.12
65290;BMP180;51893;59.754;10.110;2022-08-11T09:56:22;102331.40;;;25.20
65290;BMP180;51893;59.754;10.110;2022-08-11T09:59:10;102329.20;;;25.30
65290;BMP180;51893;59.754;10.110;2022-08-11T10:01:59;102327.40;;;25.30
65290;BMP180;51893;59.754;10.110;2022-08-11T10:04:41;102323.20;;;25.40
65290;BMP180;51893;59.754;10.110;2022-08-11T10:07:14;102325.40;;;25.50
65290;BMP180;51893;59.754;10.110;2022-08-11T10:10:00;102319.40;;;25.54
65290;BMP180;51893;59.754;10.110;2022-08-11T10:12:40;102319.20;;;25.70
65290;BMP180;51893;59.754;10.110;2022-08-11T10:15:15;102322.00;;;25.90
65290;BMP180;51893;59.754;10.110;2022-08-11T10:18:13;102322.80;;;25.96
65290;BMP180;51893;59.754;10.110;2022-08-11T10:23:53;102316.00;;;26.10
65290;BMP180;51893;59.754;10.110;2022-08-11T10:26:42;102312.80;;;26.20
65290;BMP180;51893;59.754;10.110;2022-08-11T10:29:26;102314.60;;;26.20
65290;BMP180;51893;59.754;10.110;2022-08-11T10:32:24;102309.80;;;26.32
65290;BMP180;51893;59.754;10.110;2022-08-11T10:35:29;102313.20;;;26.40
65290;BMP180;51893;59.754;10.110;2022-08-11T10:38:00;102306.60;;;26.50
65290;BMP180;51893;59.754;10.110;2022-08-11T10:40:38;102312.80;;;26.50
65290;BMP180;51893;59.754;10.110;2022-08-11T10:43:08;102304.80;;;26.58
65290;BMP180;51893;59.754;10.110;2022-08-11T10:45:46;102306.40;;;26.62
65290;BMP180;51893;59.754;10.110;2022-08-11T10:48:37;102299.80;;;26.70
65290;BMP180;51893;59.754;10.110;2022-08-11T10:51:06;102293.80;;;26.80
65290;BMP180;51893;59.754;10.110;2022-08-11T10:53:46;102293.00;;;26.90
65290;BMP180;51893;59.754;10.110;2022-08-11T10:56:38;102285.00;;;26.90
65290;BMP180;51893;59.754;10.110;2022-08-11T10:59:27;102289.80;;;27.00
65290;BMP180;51893;59.754;10.110;2022-08-11T11:01:58;102286.60;;;27.10
65290;BMP180;51893;59.754;10.110;2022-08-11T11:04:43;102283.80;;;27.20
65290;BMP180;51893;59.754;10.110;2022-08-11T11:07:26;102279.40;;;27.20
65290;BMP180;51893;59.754;10.110;2022-08-11T11:10:02;102282.80;;;27.20
65290;BMP180;51893;59.754;10.110;2022-08-11T11:12:52;102277.60;;;27.30
65290;BMP180;51893;59.754;10.110;2022-08-11T11:15:44;102275.80;;;27.62
65290;BMP180;51893;59.754;10.110;2022-08-11T11:18:35;102276.40;;;27.90
65290;BMP180;51893;59.754;10.110;2022-08-11T11:21:07;102270.40;;;28.10
65290;BMP180;51893;59.754;10.110;2022-08-11T11:30:15;102267.00;;;28.40
65290;BMP180;51893;59.754;10.110;2022-08-11T11:33:41;102268.00;;;28.20
65290;BMP180;51893;59.754;10.110;2022-08-11T11:36:47;102267.00;;;28.48
65290;BMP180;51893;59.754;10.110;2022-08-11T11:39:20;102263.20;;;28.76
65290;BMP180;51893;59.754;10.110;2022-08-11T11:41:52;102263.40;;;28.90
65290;BMP180;51893;59.754;10.110;2022-08-11T11:44:22;102263.20;;;29.00
65290;BMP180;51893;59.754;10.110;2022-08-11T11:46:51;102275.40;;;28.90
65290;BMP180;51893;59.754;10.110;2022-08-11T11:49:24;102263.80;;;28.90
65290;BMP180;51893;59.754;10.110;2022-08-11T11:51:56;102265.60;;;28.90
65290;BMP180;51893;59.754;10.110;2022-08-11T11:54:27;102264.80;;;28.98
65290;BMP180;51893;59.754;10.110;2022-08-11T11:56:58;102260.80;;;29.12
65290;BMP180;51893;59.754;10.110;2022-08-11T11:59:51;102262.60;;;29.40
65290;BMP180;51893;59.754;10.110;2022-08-11T12:02:40;102257.00;;;29.40
65290;BMP180;51893;59.754;10.110;2022-08-11T12:05:10;102258.60;;;29.60
65290;BMP180;51893;59.754;10.110;2022-08-11T12:07:40;102255.00;;;29.66
65290;BMP180;51893;59.754;10.110;2022-08-11T12:11:03;102253.80;;;29.70
65290;BMP180;51893;59.754;10.110;2022-08-11T12:13:53;102243.00;;;29.80
65290;BMP180;51893;59.754;10.110;2022-08-11T12:16:23;102248.80;;;29.90
65290;BMP180;51893;59.754;10.110;2022-08-11T12:19:11;102247.80;;;30.00
65290;BMP180;51893;59.754;10.110;2022-08-11T12:21:41;102251.80;;;30.00
65290;BMP180;51893;59.754;10.110;2022-08-11T12:24:30;102250.20;;;30.06
65290;BMP180;51893;59.754;10.110;2022-08-11T12:27:18;102245.00;;;30.00
65290;BMP180;51893;59.754;10.110;2022-08-11T12:30:00;102239.80;;;29.92
65290;BMP180;51893;59.754;10.110;2022-08-11T12:32:33;102236.80;;;30.10
65290;BMP180;51893;59.754;10.110;2022-08-11T12:35:05;102229.40;;;30.26
65290;BMP180;51893;59.754;10.110;2022-08-11T12:37:39;102230.40;;;30.40
65290;BMP180;51893;59.754;10.110;2022-08-11T12:40:21;102228.80;;;30.50
65290;BMP180;51893;59.754;10.110;2022-08-11T12:43:31;102235.80;;;30.60
65290;BMP180;51893;59.754;10.110;2022-08-11T12:46:35;102232.00;;;30.52
65290;BMP180;51893;59.754;10.110;2022-08-11T12:49:13;102225.60;;;30.50
65290;BMP180;51893;59.754;10.110;2022-08-11T12:52:08;102230.00;;;30.50
65290;BMP180;51893;59.754;10.110;2022-08-11T12:55:08;102225.80;;;30.60
65290;BMP180;51893;59.754;10.110;2022-08-11T12:57:45;102225.40;;;30.54
65290;BMP180;51893;59.754;10.110;2022-08-11T13:00:33;102216.80;;;30.50
65290;BMP180;51893;59.754;10.110;2022-08-11T13:03:21;102217.20;;;30.60
65290;BMP180;51893;59.754;10.110;2022-08-11T13:06:10;102217.60;;;30.58
65290;BMP180;51893;59.754;10.110;2022-08-11T13:08:39;102218.20;;;30.60
65290;BMP180;51893;59.754;10.110;2022-08-11T13:11:09;102216.60;;;30.50
65290;BMP180;51893;59.754;10.110;2022-08-11T13:14:16;102204.20;;;30.60
65290;BMP180;51893;59.754;10.110;2022-08-11T13:16:45;102203.00;;;30.70
65290;BMP180;51893;59.754;10.110;2022-08-11T13:19:34;102202.40;;;30.96
65290;BMP180;51893;59.754;10.110;2022-08-11T13:22:03;102199.60;;;31.10
65290;BMP180;51893;59.754;10.110;2022-08-11T13:24:36;102203.80;;;31.20
65290;BMP180;51893;59.754;10.110;2022-08-11T13:27:06;102199.60;;;31.20
65290;BMP180;51893;59.754;10.110;2022-08-11T13:29:40;102194.00;;;31.30
65290;BMP180;51893;59.754;10.110;2022-08-11T13:32:12;102190.40;;;31.40
65290;BMP180;51893;59.754;10.110;2022-08-11T13:34:45;102188.00;;;31.48
65290;BMP180;51893;59.754;10.110;2022-08-11T13:37:15;102192.20;;;31.40
65290;BMP180;51893;59.754;10.110;2022-08-11T13:39:46;102186.80;;;31.48
65290;BMP180;51893;59.754;10.110;2022-08-11T13:42:15;102189.60;;;31.50
65290;BMP180;51893;59.754;10.110;2022-08-11T13:44:49;102181.40;;;31.60
65290;BMP180;51893;59.754;10.110;2022-08-11T13:47:18;102175.60;;;31.72
65290;BMP180;51893;59.754;10.110;2022-08-11T13:49:54;102177.60;;;31.80
65290;BMP180;51893;59.754;10.110;2022-08-11T13:52:23;102180.60;;;31.60
65290;BMP180;51893;59.754;10.110;2022-08-11T13:54:55;102177.20;;;31.50
65290;BMP180;51893;59.754;10.110;2022-08-11T13:57:25;102178.20;;;31.60
65290;BMP180;51893;59.754;10.110;2022-08-11T14:00:14;102173.60;;;31.72
65290;BMP180;51893;59.754;10.110;2022-08-11T14:02:56;102181.60;;;31.80
65290;BMP180;51893;59.754;10.110;2022-08-11T14:05:33;102177.80;;;31.80
65290;BMP180;51893;59.754;10.110;2022-08-11T14:08:11;102176.40;;;31.90
65290;BMP180;51893;59.754;10.110;2022-08-11T14:11:04;102167.60;;;31.90
65290;BMP180;51893;59.754;10.110;2022-08-11T14:14:21;102167.80;;;31.90
65290;BMP180;51893;59.754;10.110;2022-08-11T14:16:55;102160.40;;;32.00
65290;BMP180;51893;59.754;10.110;2022-08-11T14:19:26;102157.00;;;32.10
65290;BMP180;51893;59.754;10.110;2022-08-11T14:22:00;102164.60;;;32.20
65290;BMP180;51893;59.754;10.110;2022-08-11T14:24:43;102173.60;;;32.10
65290;BMP180;51893;59.754;10.110;2022-08-11T14:27:17;102171.60;;;32.00
65290;BMP180;51893;59.754;10.110;2022-08-11T14:30:06;102166.00;;;31.90
65290;BMP180;51893;59.754;10.110;2022-08-11T14:32:56;102157.60;;;32.00
65290;BMP180;51893;59.754;10.110;2022-08-11T14:35:27;102155.60;;;32.00
65290;BMP180;51893;59.754;10.110;2022-08-11T14:37:58;102160.80;;;32.00
65290;BMP180;51893;59.754;10.110;2022-08-11T14:40:32;102153.60;;;32.00
65290;BMP180;51893;59.754;10.110;2022-08-11T14:43:19;102150.80;;;32.00
65290;BMP180;51893;59.754;10.110;2022-08-11T14:46:26;102153.60;;;32.00
65290;BMP180;51893;59.754;10.110;2022-08-11T14:49:13;102151.20;;;32.00
65290;BMP180;51893;59.754;10.110;2022-08-11T14:51:42;102148.20;;;32.00
65290;BMP180;51893;59.754;10.110;2022-08-11T14:54:15;102143.60;;;32.00
65290;BMP180;51893;59.754;10.110;2022-08-11T14:57:03;102144.60;;;32.06
65290;BMP180;51893;59.754;10.110;2022-08-11T14:59:32;102144.60;;;32.20
65290;BMP180;51893;59.754;10.110;2022-08-11T15:02:04;102137.00;;;32.20
65290;BMP180;51893;59.754;10.110;2022-08-11T15:04:50;102137.00;;;32.20
65290;BMP180;51893;59.754;10.110;2022-08-11T15:07:19;102131.80;;;32.20
65290;BMP180;51893;59.754;10.110;2022-08-11T15:10:05;102126.40;;;32.30
65290;BMP180;51893;59.754;10.110;2022-08-11T15:12:41;102124.80;;;32.40
65290;BMP180;51893;59.754;10.110;2022-08-11T15:15:12;102125.40;;;32.50
65290;BMP180;51893;59.754;10.110;2022-08-11T15:18:05;102119.40;;;32.60
65290;BMP180;51893;59.754;10.110;2022-08-11T15:20:34;102119.40;;;32.50
65290;BMP180;51893;59.754;10.110;2022-08-11T15:23:24;102120.20;;;32.60
65290;BMP180;51893;59.754;10.110;2022-08-11T15:26:32;102124.20;;;32.56
65290;BMP180;51893;59.754;10.110;2022-08-11T15:29:28;102117.20;;;32.40
65290;BMP180;51893;59.754;10.110;2022-08-11T15:32:19;102102.00;;;32.32
65290;BMP180;51893;59.754;10.110;2022-08-11T15:34:59;102096.20;;;32.30
65290;BMP180;51893;59.754;10.110;2022-08-11T15:37:54;102099.80;;;32.30
65290;BMP180;51893;59.754;10.110;2022-08-11T15:40:34;102097.40;;;32.24
65290;BMP180;51893;59.754;10.110;2022-08-11T15:43:31;102096.60;;;32.20
65290;BMP180;51893;59.754;10.110;2022-08-11T15:46:48;102093.40;;;32.20
65290;BMP180;51893;59.754;10.110;2022-08-11T15:49:37;102098.40;;;32.20
65290;BMP180;51893;59.754;10.110;2022-08-11T15:52:36;102097.00;;;32.20
65290;BMP180;51893;59.754;10.110;2022-08-11T15:55:09;102095.40;;;32.24
65290;BMP180;51893;59.754;10.110;2022-08-11T15:57:42;102095.40;;;32.20
65290;BMP180;51893;59.754;10.110;2022-08-11T16:00:30;102091.20;;;32.10
65290;BMP180;51893;59.754;10.110;2022-08-11T16:03:44;102085.80;;;32.10
65290;BMP180;51893;59.754;10.110;2022-08-11T16:07:00;102089.00;;;32.00
65290;BMP180;51893;59.754;10.110;2022-08-11T16:09:42;102086.20;;;32.00
65290;BMP180;51893;59.754;10.110;2022-08-11T16:12:41;102081.80;;;31.94
65290;BMP180;51893;59.754;10.110;2022-08-11T16:15:38;102076.60;;;31.90
65290;BMP180;51893;59.754;10.110;2022-08-11T16:18:33;102072.40;;;31.92
65290;BMP180;51893;59.754;10.110;2022-08-11T16:21:25;102070.60;;;31.90
65290;BMP180;51893;59.754;10.110;2022-08-11T16:24:11;102069.40;;;31.90
65290;BMP180;51893;59.754;10.110;2022-08-11T16:27:03;102072.60;;;31.90
65290;BMP180;51893;59.754;10.110;2022-08-11T16:29:45;102068.80;;;31.90
65290;BMP180;51893;59.754;10.110;2022-08-11T16:32:20;102071.60;;;31.90
65290;BMP180;51893;59.754;10.110;2022-08-11T16:35:00;102052.00;;;31.70
65290;BMP180;51893;59.754;10.110;2022-08-11T16:37:50;102043.20;;;31.40
65290;BMP180;51893;59.754;10.110;2022-08-11T16:40:42;102034.20;;;31.16
65290;BMP180;51893;59.754;10.110;2022-08-11T16:43:16;102036.80;;;31.00
65290;BMP180;51893;59.754;10.110;2022-08-11T16:46:07;102029.40;;;30.80
65290;BMP180;51893;59.754;10.110;2022-08-11T16:48:56;102023.60;;;30.60
65290;BMP180;51893;59.754;10.110;2022-08-11T16:51:25;102018.40;;;30.40
65290;BMP180;51893;59.754;10.110;2022-08-11T16:53:53;102021.80;;;30.30
65290;BMP180;51893;59.754;10.110;2022-08-11T16:56:50;102017.20;;;30.20
65290;BMP180;51893;59.754;10.110;2022-08-11T16:59:31;102024.60;;;30.10
65290;BMP180;51893;59.754;10.110;2022-08-11T17:02:15;102019.80;;;30.08
65290;BMP180;51893;59.754;10.110;2022-08-11T17:05:12;102016.60;;;30.00
65290;BMP180;51893;59.754;10.110;2022-08-11T17:08:09;102016.60;;;30.00
65290;BMP180;51893;59.754;10.110;2022-08-11T17:11:01;102014.80;;;30.00
65290;BMP180;51893;59.754;10.110;2022-08-11T17:14:08;102015.20;;;30.00
65290;BMP180;51893;59.754;10.110;2022-08-11T17:16:41;102017.60;;;29.90
65290;BMP180;51893;59.754;10.110;2022-08-11T17:19:17;102011.20;;;29.80
65290;BMP180;51893;59.754;10.110;2022-08-11T17:22:08;102010.40;;;29.70
65290;BMP180;51893;59.754;10.110;2022-08-11T17:24:57;102014.40;;;29.70
65290;BMP180;51893;59.754;10.110;2022-08-11T17:27:27;102009.00;;;29.50
65290;BMP180;51893;59.754;10.110;2022-08-11T17:29:59;102004.40;;;29.40
65290;BMP180;51893;59.754;10.110;2022-08-11T17:32:54;102003.20;;;29.30
65290;BMP180;51893;59.754;10.110;2022-08-11T17:35:41;102004.20;;;29.20
65290;BMP180;51893;59.754;10.110;2022-08-11T17:38:20;102002.20;;;29.10
65290;BMP180;51893;59.754;10.110;2022-08-11T17:41:07;102000.40;;;29.00
65290;BMP180;51893;59.754;10.110;2022-08-11T17:43:57;102000.80;;;28.90
65290;BMP180;51893;59.754;10.110;2022-08-11T17:46:48;102006.80;;;28.80
65290;BMP180;51893;59.754;10.110;2022-08-11T17:49:39;102007.60;;;28.64
65290;BMP180;51893;59.754;10.110;2022-08-11T17:52:09;102010.40;;;28.52
65290;BMP180;51893;59.754;10.110;2022-08-11T17:55:03;102014.20;;;28.40
65290;BMP180;51893;59.754;10.110;2022-08-11T17:58:13;102024.60;;;28.30
65290;BMP180;51893;59.754;10.110;2022-08-11T18:01:02;102029.80;;;28.20
65290;BMP180;51893;59.754;10.110;2022-08-11T18:03:39;102035.80;;;28.10
65290;BMP180;51893;59.754;10.110;2022-08-11T18:06:21;102030.40;;;28.00
65290;BMP180;51893;59.754;10.110;2022-08-11T18:09:06;102031.40;;;27.90
65290;BMP180;51893;59.754;10.110;2022-08-11T18:11:55;102030.60;;;27.80
65290;BMP180;51893;59.754;10.110;2022-08-11T18:14:50;102032.20;;;27.60
65290;BMP180;51893;59.754;10.110;2022-08-11T18:17:40;102028.80;;;27.40
65290;BMP180;51893;59.754;10.110;2022-08-11T18:20:27;102027.80;;;27.30